createdAt,value
2018-06-02T00:00:19.471Z,144.03
2018-06-02T00:02:46.924Z,149.57
2018-06-02T00:05:14.398Z,138.63
2018-06-02T00:07:41.862Z,150.70
2018-06-02T00:10:09.316Z,148.43
2018-06-02T00:12:36.767Z,151.23
2018-06-02T00:15:04.211Z,153.87
2018-06-02T00:17:31.643Z,142.37
2018-06-02T00:19:59.174Z,127.47
2018-06-02T00:22:26.609Z,137.40
2018-06-02T00:24:54.046Z,141.30
2018-06-02T00:27:21.483Z,149.23
2018-06-02T00:29:48.920Z,144.60
2018-06-02T00:32:17.138Z,130.80
2018-06-02T00:34:44.588Z,132.87
2018-06-02T00:37:12.060Z,149.50
2018-06-02T00:39:39.497Z,146.00
2018-06-02T00:42:06.936Z,147.37
2018-06-02T00:44:34.431Z,137.23
2018-06-02T00:47:01.872Z,139.67
2018-06-02T00:49:29.308Z,151.93
2018-06-02T00:51:57.619Z,150.60
2018-06-02T00:54:36.750Z,147.33
2018-06-02T00:57:04.207Z,140.73
2018-06-02T00:59:31.679Z,138.73
2018-06-02T01:01:59.123Z,148.80
2018-06-02T01:04:26.582Z,142.20
2018-06-02T01:06:54.143Z,139.50
2018-06-02T01:09:21.598Z,139.60
2018-06-02T01:11:49.150Z,147.77
2018-06-02T01:14:16.588Z,147.33
2018-06-02T01:16:44.062Z,155.40
2018-06-02T01:19:11.531Z,150.73
2018-06-02T01:21:38.987Z,139.30
2018-06-02T01:24:06.422Z,137.77
2018-06-02T01:26:33.865Z,145.53
2018-06-02T01:29:02.067Z,134.87
2018-06-02T01:31:29.506Z,133.50
2018-06-02T01:33:57.005Z,137.77
2018-06-02T01:36:24.456Z,137.47
2018-06-02T01:38:51.911Z,139.73
2018-06-02T01:41:19.364Z,140.40
2018-06-02T01:43:46.823Z,135.73
2018-06-02T01:46:14.282Z,133.10
2018-06-02T01:48:41.730Z,131.40
2018-06-02T01:51:09.191Z,128.23
2018-06-02T01:53:36.634Z,137.40
2018-06-02T01:56:04.071Z,125.87
2018-06-02T01:58:31.511Z,140.97
2018-06-02T02:00:59.747Z,139.63
2018-06-02T02:03:27.200Z,134.43
2018-06-02T02:05:54.664Z,114.60
2018-06-02T02:08:22.102Z,124.30
2018-06-02T02:10:49.573Z,130.77
2018-06-02T02:13:17.017Z,142.27
2018-06-02T02:15:44.488Z,122.00
2018-06-02T02:18:11.924Z,142.75
2018-06-02T02:20:39.386Z,139.43
2018-06-02T02:23:06.822Z,131.70
2018-06-02T02:25:35.062Z,138.67
2018-06-02T02:28:02.498Z,114.43
2018-06-02T02:30:29.943Z,137.87
2018-06-02T02:32:57.391Z,127.70
2018-06-02T02:35:25.886Z,135.53
2018-06-02T02:37:53.307Z,153.57
2018-06-02T02:40:20.892Z,141.00
2018-06-02T02:42:48.359Z,121.80
2018-06-02T02:45:15.817Z,147.60
2018-06-02T02:47:43.289Z,142.53
2018-06-02T02:50:10.840Z,118.00
2018-06-02T02:52:38.281Z,132.03
2018-06-02T02:55:05.751Z,106.80
2018-06-02T02:57:33.192Z,98.83
2018-06-02T03:00:00.635Z,89.07
2018-06-02T03:02:28.071Z,91.10
2018-06-02T03:04:56.273Z,80.73
2018-06-02T03:07:23.703Z,79.97
2018-06-02T03:09:51.989Z,86.83
2018-06-02T03:12:19.495Z,85.82
2018-06-02T03:14:46.932Z,73.73
2018-06-02T03:17:14.379Z,84.28
2018-06-02T03:19:41.860Z,86.33
2018-06-02T03:22:09.411Z,64.87
2018-06-02T03:24:36.880Z,73.60
2018-06-02T03:27:04.317Z,72.10
2018-06-02T03:29:31.783Z,85.10
2018-06-02T03:31:59.243Z,69.37
2018-06-02T03:34:26.699Z,84.50
2018-06-02T03:36:54.155Z,68.30
2018-06-02T03:39:21.628Z,84.63
2018-06-02T03:41:49.175Z,86.57
2018-06-02T03:44:16.636Z,93.80
2018-06-02T03:46:44.095Z,92.17
2018-06-02T03:49:11.554Z,94.10
2018-06-02T03:51:38.987Z,91.73
2018-06-02T03:54:06.472Z,98.60
2018-06-02T03:56:33.915Z,96.55
2018-06-02T03:59:01.355Z,103.17
2018-06-02T04:01:28.843Z,102.50
2018-06-02T04:03:56.308Z,106.07
2018-06-02T04:06:23.787Z,111.07
2018-06-02T04:08:51.220Z,97.73
2018-06-02T04:11:18.777Z,109.17
2018-06-02T04:13:46.336Z,97.00
2018-06-02T04:16:15.402Z,120.20
2018-06-02T04:18:42.840Z,116.40
2018-06-02T04:21:11.055Z,140.60
2018-06-02T04:23:38.497Z,147.60
2018-06-02T04:26:06.908Z,147.40
2018-06-02T04:28:34.359Z,139.90
2018-06-02T04:31:01.815Z,171.90
2018-06-02T04:33:29.255Z,152.73
2018-06-02T04:35:56.702Z,144.60
2018-06-02T04:38:24.195Z,167.03
2018-06-02T04:40:51.639Z,161.67
2018-06-02T04:43:19.102Z,160.00
2018-06-02T04:45:46.660Z,151.13
2018-06-02T04:48:14.108Z,157.10
2018-06-02T04:50:41.547Z,161.77
2018-06-02T04:53:08.980Z,175.38
2018-06-02T04:55:37.203Z,171.43
2018-06-02T04:58:04.655Z,171.07
2018-06-02T05:00:32.115Z,143.17
2018-06-02T05:02:59.578Z,157.27
2018-06-02T05:05:27.189Z,159.97
2018-06-02T05:07:55.389Z,162.57
2018-06-02T05:10:22.827Z,168.00
2018-06-02T05:12:51.052Z,150.73
2018-06-02T05:15:18.506Z,135.67
2018-06-02T05:17:45.947Z,143.53
2018-06-02T05:20:13.391Z,136.37
2018-06-02T05:22:40.826Z,127.97
2018-06-02T05:25:09.036Z,129.97
2018-06-02T05:27:36.607Z,118.20
2018-06-02T05:30:04.054Z,116.70
2018-06-02T05:32:31.497Z,118.43
2018-06-02T05:34:58.975Z,120.97
2018-06-02T05:37:26.412Z,144.33
2018-06-02T05:39:53.863Z,123.40
2018-06-02T05:42:21.340Z,144.97
2018-06-02T05:44:48.770Z,144.97
2018-06-02T05:47:16.216Z,154.70
2018-06-02T05:49:44.425Z,157.13
2018-06-02T05:52:11.881Z,158.03
2018-06-02T05:54:39.339Z,149.87
2018-06-02T05:57:06.762Z,158.87
2018-06-02T05:59:34.982Z,151.87
2018-06-02T06:02:02.439Z,157.23
2018-06-02T06:04:29.899Z,158.10
2018-06-02T06:06:57.346Z,126.33
2018-06-02T06:09:24.815Z,131.53
2018-06-02T06:11:52.271Z,129.33
2018-06-02T06:14:19.727Z,133.23
2018-06-02T06:16:47.294Z,120.63
2018-06-02T06:19:14.758Z,109.43
2018-06-02T06:21:42.199Z,100.67
2018-06-02T06:24:09.635Z,96.90
2018-06-02T06:26:37.081Z,97.47
2018-06-02T06:29:05.295Z,93.87
2018-06-02T06:31:32.727Z,92.00
2018-06-02T06:34:00.215Z,90.20
2018-06-02T06:36:27.663Z,87.07
2018-06-02T06:38:55.099Z,82.80
2018-06-02T06:41:22.546Z,73.67
2018-06-02T06:43:50.746Z,80.80
2018-06-02T06:46:18.211Z,98.63
2018-06-02T06:48:45.670Z,91.10
2018-06-02T06:51:13.103Z,112.73
2018-06-02T06:53:40.555Z,107.93
2018-06-02T06:56:07.995Z,99.62
2018-06-02T06:58:36.316Z,95.57
2018-06-02T07:01:03.735Z,95.78
2018-06-02T07:03:31.939Z,87.70
2018-06-02T07:05:59.408Z,75.67
2018-06-02T07:08:26.843Z,76.27
2018-06-02T07:10:54.295Z,74.57
2018-06-02T07:13:21.780Z,76.43
2018-06-02T07:15:49.328Z,71.40
2018-06-02T07:18:16.807Z,67.20
2018-06-02T07:20:44.364Z,72.40
2018-06-02T07:23:11.815Z,78.63
2018-06-02T07:25:39.256Z,77.57
2018-06-02T07:28:06.711Z,81.23
2018-06-02T07:30:34.146Z,70.17
2018-06-02T07:33:02.369Z,67.40
2018-06-02T07:35:29.839Z,82.00
2018-06-02T07:37:57.272Z,81.47
2018-06-02T07:40:24.720Z,85.73
2018-06-02T07:42:52.168Z,88.33
2018-06-02T07:45:19.613Z,88.80
2018-06-02T07:47:47.976Z,101.83
2018-06-02T07:50:16.191Z,119.57
2018-06-02T07:52:43.658Z,123.80
2018-06-02T07:55:11.115Z,115.83
2018-06-02T07:57:38.560Z,129.63
2018-06-02T08:00:06.003Z,126.43
2018-06-02T08:02:33.495Z,125.23
2018-06-02T08:05:00.943Z,121.83
2018-06-02T08:07:28.496Z,133.70
2018-06-02T08:09:55.978Z,147.30
2018-06-02T08:12:23.423Z,153.10
2018-06-02T08:14:50.878Z,162.00
2018-06-02T08:17:18.447Z,171.80
2018-06-02T08:19:45.895Z,173.43
2018-06-02T08:22:13.331Z,134.77
2018-06-02T08:24:40.775Z,122.00
2018-06-02T08:27:08.223Z,107.90
2018-06-02T08:29:36.546Z,102.97
2018-06-02T08:32:03.981Z,101.73
2018-06-02T08:34:31.435Z,111.93
2018-06-02T08:36:58.877Z,96.97
2018-06-02T08:39:27.090Z,101.53
2018-06-02T08:41:54.534Z,99.40
2018-06-02T08:44:22.016Z,97.43
2018-06-02T08:46:49.458Z,86.30
2018-06-02T08:49:16.915Z,81.10
2018-06-02T08:51:44.375Z,82.00
2018-06-02T08:54:11.831Z,70.10
2018-06-02T08:56:39.291Z,58.57
2018-06-02T08:59:06.736Z,56.10
2018-06-02T09:01:34.184Z,55.43
2018-06-02T09:04:01.685Z,53.93
2018-06-02T09:06:29.165Z,55.40
2018-06-02T09:08:56.561Z,55.03
2018-06-02T09:11:24.131Z,44.97
2018-06-02T09:13:51.604Z,46.30
2018-06-02T09:16:19.051Z,48.93
2018-06-02T09:18:46.511Z,50.20
2018-06-02T09:21:13.945Z,45.97
2018-06-02T09:23:41.395Z,48.30
2018-06-02T09:26:09.623Z,44.87
2018-06-02T09:28:37.047Z,45.53
2018-06-02T09:31:04.516Z,48.07
2018-06-02T09:33:31.944Z,49.33
2018-06-02T09:35:59.379Z,52.17
2018-06-02T09:38:27.611Z,47.90
2018-06-02T09:40:55.061Z,44.23
2018-06-02T09:43:22.579Z,47.60
2018-06-02T09:45:50.069Z,44.53
2018-06-02T09:48:17.505Z,47.47
2018-06-02T09:50:44.936Z,47.40
2018-06-02T09:53:12.383Z,45.43
2018-06-02T09:55:39.830Z,36.53
2018-06-02T09:58:07.273Z,40.97
2018-06-02T10:00:36.567Z,37.67
2018-06-02T10:03:04.008Z,40.55
2018-06-02T10:05:31.487Z,37.92
2018-06-02T10:07:58.931Z,37.30
2018-06-02T10:10:26.452Z,38.55
2018-06-02T10:12:53.946Z,41.63
2018-06-02T10:15:21.411Z,39.17
2018-06-02T10:17:48.854Z,40.20
2018-06-02T10:20:16.327Z,37.72
2018-06-02T10:22:43.768Z,33.73
2018-06-02T10:25:11.243Z,34.67
2018-06-02T10:27:38.695Z,34.90
2018-06-02T10:30:06.131Z,34.00
2018-06-02T10:32:33.591Z,34.83
2018-06-02T10:35:01.057Z,36.03
2018-06-02T10:37:28.493Z,33.08
2018-06-02T10:39:55.973Z,33.87
2018-06-02T10:42:23.398Z,34.67
2018-06-02T10:44:51.607Z,35.37
2018-06-02T10:47:19.073Z,31.63
2018-06-02T10:49:46.518Z,29.15
2018-06-02T10:52:13.981Z,31.87
2018-06-02T10:54:41.536Z,31.87
2018-06-02T10:57:09.015Z,33.83
2018-06-02T10:59:37.499Z,32.67
2018-06-02T11:02:05.047Z,35.88
2018-06-02T11:04:32.515Z,38.73
2018-06-02T11:06:59.948Z,34.87
2018-06-02T11:09:27.459Z,32.40
2018-06-02T11:11:54.909Z,32.90
2018-06-02T11:14:22.356Z,30.33
2018-06-02T11:16:49.881Z,30.73
2018-06-02T11:19:17.294Z,31.05
2018-06-02T11:21:45.507Z,31.33
2018-06-02T11:24:12.976Z,32.65
2018-06-02T11:26:40.442Z,32.90
2018-06-02T11:29:07.876Z,33.80
2018-06-02T11:31:35.314Z,39.35
2018-06-02T11:34:02.829Z,42.65
2018-06-02T11:36:30.255Z,40.63
2018-06-02T11:38:57.696Z,43.40
2018-06-02T11:41:25.149Z,38.78
2018-06-02T11:43:52.608Z,42.53
2018-06-02T11:46:20.827Z,45.97
2018-06-02T11:48:48.291Z,46.30
2018-06-02T11:51:15.833Z,46.53
2018-06-02T11:53:43.280Z,46.93
2018-06-02T11:56:10.735Z,51.70
2018-06-02T11:58:38.192Z,52.40
2018-06-02T12:01:05.695Z,44.47
2018-06-02T12:03:33.218Z,96.12
2018-06-02T12:06:00.687Z,44.43
2018-06-02T12:08:28.131Z,45.00
2018-06-02T12:10:55.589Z,38.33
2018-06-02T12:13:23.094Z,72.40
2018-06-02T12:15:50.518Z,37.38
2018-06-02T12:18:17.958Z,34.90
2018-06-02T12:20:45.408Z,34.42
2018-06-02T12:23:12.863Z,37.78
2018-06-02T12:25:40.299Z,29.30
2018-06-02T12:28:08.517Z,32.07
2018-06-02T12:30:35.996Z,30.47
2018-06-02T12:33:03.428Z,30.40
2018-06-02T12:35:30.883Z,28.45
2018-06-02T12:37:58.331Z,26.10
2018-06-02T12:40:25.772Z,26.75
2018-06-02T12:42:53.206Z,28.95
2018-06-02T12:45:21.523Z,26.77
2018-06-02T12:47:48.978Z,29.73
2018-06-02T12:50:16.435Z,25.37
2018-06-02T12:52:43.851Z,25.37
2018-06-02T12:55:12.095Z,27.60
2018-06-02T12:57:39.535Z,25.95
2018-06-02T13:00:07.012Z,28.33
2018-06-02T13:02:34.448Z,27.83
2018-06-02T13:05:01.934Z,27.77
2018-06-02T13:07:29.427Z,27.50
2018-06-02T13:09:57.667Z,31.73
2018-06-02T13:12:25.116Z,34.78
2018-06-02T13:14:52.563Z,33.38
2018-06-02T13:17:20.044Z,30.43
2018-06-02T13:19:47.478Z,31.45
2018-06-02T13:22:15.022Z,32.60
2018-06-02T13:24:42.491Z,30.90
2018-06-02T13:27:10.038Z,33.33
2018-06-02T13:29:37.463Z,34.47
2018-06-02T13:32:05.676Z,36.72
2018-06-02T13:34:33.133Z,35.83
2018-06-02T13:37:00.567Z,34.43
2018-06-02T13:39:28.011Z,38.70
2018-06-02T13:41:56.213Z,37.58
2018-06-02T13:44:23.712Z,42.97
2018-06-02T13:46:51.146Z,40.40
2018-06-02T13:49:18.608Z,38.73
2018-06-02T13:51:46.042Z,42.92
2018-06-02T13:54:13.504Z,43.40
2018-06-02T13:56:40.951Z,40.03
2018-06-02T13:59:08.383Z,38.75
2018-06-02T14:01:36.613Z,41.13
2018-06-02T14:04:04.055Z,34.83
2018-06-02T14:06:31.496Z,36.75
2018-06-02T14:08:58.931Z,38.33
2018-06-02T14:11:27.140Z,44.05
2018-06-02T14:13:54.628Z,40.17
2018-06-02T14:16:22.036Z,43.22
2018-06-02T14:18:49.535Z,42.97
2018-06-02T14:21:17.694Z,44.70
2018-06-02T14:23:45.147Z,42.05
2018-06-02T14:26:12.622Z,47.92
2018-06-02T14:28:40.056Z,47.58
2018-06-02T14:31:07.509Z,42.38
2018-06-02T14:33:34.947Z,43.75
2018-06-02T14:36:03.257Z,41.55
2018-06-02T14:38:30.709Z,40.95
2018-06-02T14:40:58.254Z,43.10
2018-06-02T14:43:25.724Z,38.17
2018-06-02T14:45:53.183Z,37.88
2018-06-02T14:48:20.680Z,35.13
2018-06-02T14:50:48.139Z,33.28
2018-06-02T14:53:15.580Z,33.38
2018-06-02T14:55:43.024Z,30.70
2018-06-02T14:58:10.466Z,32.20
2018-06-02T15:00:37.927Z,30.52
2018-06-02T15:03:05.387Z,30.27
2018-06-02T15:05:32.836Z,32.08
2018-06-02T15:08:00.295Z,26.23
2018-06-02T15:10:27.738Z,25.37
2018-06-02T15:12:55.228Z,24.55
2018-06-02T15:15:22.671Z,26.77
2018-06-02T15:17:50.270Z,23.60
2018-06-02T15:20:17.683Z,24.08
2018-06-02T15:22:45.137Z,25.58
2018-06-02T15:25:12.583Z,23.90
2018-06-02T15:27:40.019Z,28.23
2018-06-02T15:30:07.473Z,27.10
2018-06-02T15:32:34.935Z,23.70
2018-06-02T15:35:02.392Z,25.12
2018-06-02T15:37:29.844Z,23.83
2018-06-02T15:39:57.280Z,24.85
2018-06-02T15:42:24.710Z,26.27
2018-06-02T15:44:52.935Z,22.17
2018-06-02T15:47:20.399Z,25.80
2018-06-02T15:49:47.851Z,25.52
2018-06-02T15:52:15.288Z,26.03
2018-06-02T15:54:42.768Z,23.65
2018-06-02T15:57:10.228Z,21.40
2018-06-02T15:59:37.777Z,20.62
2018-06-02T16:02:05.963Z,27.37
2018-06-02T16:04:33.419Z,22.23
2018-06-02T16:07:00.971Z,20.62
2018-06-02T16:09:28.434Z,20.85
2018-06-02T16:11:55.888Z,22.73
2018-06-02T16:14:23.335Z,23.73
2018-06-02T16:16:50.787Z,23.80
2018-06-02T16:19:18.223Z,25.40
2018-06-02T16:21:45.713Z,25.37
2018-06-02T16:24:13.150Z,25.25
2018-06-02T16:26:40.587Z,24.27
2018-06-02T16:29:08.813Z,24.60
2018-06-02T16:31:36.256Z,30.30
2018-06-02T16:34:03.739Z,26.60
2018-06-02T16:36:31.289Z,26.80
2018-06-02T16:38:58.739Z,29.30
2018-06-02T16:41:26.193Z,30.80
2018-06-02T16:43:53.619Z,35.95
2018-06-02T16:46:21.119Z,27.05
2018-06-02T16:48:48.559Z,30.17
2018-06-02T16:51:16.035Z,26.50
2018-06-02T16:53:43.583Z,32.55
2018-06-02T16:56:11.025Z,29.87
2018-06-02T16:58:38.499Z,33.28
2018-06-02T17:01:05.974Z,33.45
2018-06-02T17:03:33.443Z,31.33
2018-06-02T17:06:00.879Z,32.03
2018-06-02T17:08:28.319Z,35.15
2018-06-02T17:10:55.755Z,39.67
2018-06-02T17:13:23.199Z,42.30
2018-06-02T17:15:51.480Z,42.60
2018-06-02T17:18:19.708Z,43.50
2018-06-02T17:20:47.159Z,42.90
2018-06-02T17:23:14.609Z,44.22
2018-06-02T17:25:42.159Z,46.60
2018-06-02T17:28:09.591Z,48.63
2018-06-02T17:30:37.083Z,49.90
2018-06-02T17:33:04.545Z,51.00
2018-06-02T17:35:32.010Z,51.37
2018-06-02T17:37:59.559Z,49.00
2018-06-02T17:40:27.011Z,51.10
2018-06-02T17:42:54.474Z,57.45
2018-06-02T17:45:21.940Z,60.90
2018-06-02T17:47:49.496Z,57.17
2018-06-02T17:50:16.949Z,59.22
2018-06-02T17:52:44.400Z,61.90
2018-06-02T17:55:11.835Z,60.67
2018-06-02T17:57:39.348Z,63.77
2018-06-02T18:00:06.789Z,62.73
2018-06-02T18:02:34.348Z,66.83
2018-06-02T18:05:01.787Z,68.70
2018-06-02T18:07:29.264Z,61.10
2018-06-02T18:09:56.712Z,64.53
2018-06-02T18:12:24.168Z,66.47
2018-06-02T18:14:51.646Z,64.33
2018-06-02T18:17:19.079Z,64.50
2018-06-02T18:19:46.499Z,70.77
2018-06-02T18:22:14.707Z,72.07
2018-06-02T18:24:42.160Z,71.33
2018-06-02T18:27:09.617Z,75.55
2018-06-02T18:29:37.079Z,77.30
2018-06-02T18:32:04.533Z,77.60
2018-06-02T18:34:31.992Z,71.77
2018-06-02T18:36:59.475Z,74.68
2018-06-02T18:39:27.023Z,72.57
2018-06-02T18:41:54.575Z,69.00
2018-06-02T18:44:22.011Z,68.90
2018-06-02T18:46:49.455Z,75.03
2018-06-02T18:49:16.923Z,70.43
2018-06-02T18:51:44.411Z,73.13
2018-06-02T18:54:11.864Z,77.30
2018-06-02T18:56:39.323Z,83.13
2018-06-02T18:59:06.771Z,77.40
2018-06-02T19:01:34.231Z,79.67
2018-06-02T19:04:01.679Z,85.37
2018-06-02T19:06:29.153Z,77.47
2018-06-02T19:08:56.588Z,83.03
2018-06-02T19:11:24.071Z,83.70
2018-06-02T19:13:51.507Z,85.37
2018-06-02T19:16:19.009Z,84.17
2018-06-02T19:18:46.447Z,88.03
2018-06-02T19:21:13.880Z,92.20
2018-06-02T19:23:41.338Z,90.30
2018-06-02T19:26:08.771Z,91.37
2018-06-02T19:28:36.204Z,91.47
2018-06-02T19:31:03.747Z,90.30
2018-06-02T19:33:31.287Z,89.07
2018-06-02T19:35:58.737Z,92.37
2018-06-02T19:38:26.202Z,95.50
2018-06-02T19:40:53.666Z,94.10
2018-06-02T19:43:21.884Z,96.80
2018-06-02T19:45:49.343Z,93.73
2018-06-02T19:48:16.845Z,100.17
2018-06-02T19:50:44.259Z,106.43
2018-06-02T19:53:11.707Z,162.83
2018-06-02T19:55:39.276Z,127.07
2018-06-02T19:58:06.723Z,101.23
2018-06-02T20:00:34.170Z,99.57
2018-06-02T20:03:01.626Z,95.47
2018-06-02T20:05:29.102Z,102.07
2018-06-02T20:07:56.584Z,100.30
2018-06-02T20:10:24.790Z,95.90
2018-06-02T20:12:52.232Z,101.87
2018-06-02T20:15:19.679Z,99.23
2018-06-02T20:17:47.128Z,109.37
2018-06-02T20:20:14.622Z,102.43
2018-06-02T20:22:42.262Z,93.57
2018-06-02T20:25:09.675Z,96.50
2018-06-02T20:27:37.886Z,99.80
2018-06-02T20:30:05.323Z,102.97
2018-06-02T20:32:32.817Z,104.13
2018-06-02T20:35:00.278Z,103.07
2018-06-02T20:37:27.741Z,102.93
2018-06-02T20:39:55.171Z,106.77
2018-06-02T20:42:22.637Z,106.00
2018-06-02T20:44:50.078Z,98.47
2018-06-02T20:47:17.574Z,102.73
2018-06-02T20:49:45.032Z,107.97
2018-06-02T20:52:12.471Z,98.70
2018-06-02T20:54:39.931Z,94.70
2018-06-02T20:57:07.384Z,109.83
2018-06-02T20:59:34.863Z,102.97
2018-06-02T21:02:02.311Z,109.27
2018-06-02T21:04:29.842Z,112.87
2018-06-02T21:06:57.334Z,110.50
2018-06-02T21:09:24.862Z,111.13
2018-06-02T21:11:52.287Z,117.40
2018-06-02T21:14:19.765Z,106.03
2018-06-02T21:16:47.986Z,105.33
2018-06-02T21:19:15.425Z,104.50
2018-06-02T21:21:42.862Z,112.23
2018-06-02T21:24:10.350Z,112.97
2018-06-02T21:26:37.805Z,112.47
2018-06-02T21:29:05.254Z,123.57
2018-06-02T21:31:32.835Z,126.13
2018-06-02T21:34:00.289Z,117.60
2018-06-02T21:36:27.756Z,113.40
2018-06-02T21:38:55.203Z,114.60
2018-06-02T21:41:22.749Z,115.90
2018-06-02T21:43:50.179Z,118.30
2018-06-02T21:46:18.384Z,126.60
2018-06-02T21:48:45.828Z,118.60
2018-06-02T21:51:13.299Z,109.23
2018-06-02T21:53:40.727Z,113.83
2018-06-02T21:56:09.039Z,118.47
2018-06-02T21:58:36.486Z,125.73
2018-06-02T22:01:03.918Z,108.80
2018-06-02T22:03:32.136Z,129.75
2018-06-02T22:05:59.680Z,121.53
2018-06-02T22:08:27.148Z,116.37
2018-06-02T22:10:54.614Z,132.07
2018-06-02T22:13:22.059Z,124.17
2018-06-02T22:15:49.529Z,116.77
2018-06-02T22:18:16.955Z,121.40
2018-06-02T22:20:44.443Z,122.70
2018-06-02T22:23:11.894Z,115.97
2018-06-02T22:25:39.339Z,110.20
2018-06-02T22:28:07.023Z,106.50
2018-06-02T22:30:34.559Z,107.43
2018-06-02T22:33:01.991Z,107.80
2018-06-02T22:35:29.431Z,103.27
2018-06-02T22:37:56.877Z,113.53
2018-06-02T22:40:25.099Z,106.37
2018-06-02T22:42:52.579Z,111.13
2018-06-02T22:45:20.053Z,114.37
2018-06-02T22:47:47.487Z,111.27
2018-06-02T22:50:14.927Z,102.03
2018-06-02T22:52:42.497Z,105.47
2018-06-02T22:55:09.943Z,114.80
2018-06-02T22:57:37.391Z,108.87
2018-06-02T23:00:04.859Z,94.33
2018-06-02T23:02:32.349Z,105.77
2018-06-02T23:04:59.811Z,110.40
2018-06-02T23:07:27.230Z,108.47
2018-06-02T23:09:54.783Z,99.60
2018-06-02T23:12:22.213Z,104.63
2018-06-02T23:14:49.643Z,97.57
2018-06-02T23:17:17.094Z,106.80
2018-06-02T23:19:44.536Z,107.67
2018-06-02T23:22:33.515Z,98.23
2018-06-02T23:25:01.217Z,101.80
2018-06-02T23:27:29.475Z,98.43
2018-06-02T23:29:57.699Z,99.57
2018-06-02T23:32:26.139Z,101.17
2018-06-02T23:34:53.650Z,99.57
2018-06-02T23:37:21.098Z,108.70
2018-06-02T23:39:48.547Z,106.10
2018-06-02T23:42:16.011Z,108.18
2018-06-02T23:44:43.466Z,110.17
2018-06-02T23:47:11.013Z,101.00
2018-06-02T23:49:38.484Z,99.33
2018-06-02T23:52:05.943Z,102.77
2018-06-02T23:54:33.401Z,101.63
2018-06-02T23:57:00.839Z,97.43
2018-06-02T23:59:28.402Z,91.10
